sensor_id;sensor_type;location;lat;lon;timestamp;pressure;altitude;pressure_sealevel;temperature;humidity
64602;BME280;51013;42.630;23.192;2022-09-02T00:01:14;92159.06;;;18.41;88.35
64602;BME280;51013;42.630;23.192;2022-09-02T00:03:43;92171.66;;;18.30;88.03
64602;BME280;51013;42.630;23.192;2022-09-02T00:06:10;92162.53;;;18.31;88.13
64602;BME280;51013;42.630;23.192;2022-09-02T00:08:38;92113.38;;;17.94;88.23
64602;BME280;51013;42.630;23.192;2022-09-02T00:11:06;92175.06;;;18.34;88.93
64602;BME280;51013;42.630;23.192;2022-09-02T00:13:35;92162.53;;;18.31;88.49
64602;BME280;51013;42.630;23.192;2022-09-02T00:16:04;92172.41;;;18.34;88.84
64602;BME280;51013;42.630;23.192;2022-09-02T00:18:32;92184.53;;;18.38;89.11
64602;BME280;51013;42.630;23.192;2022-09-02T00:21:00;92170.13;;;18.29;89.39
64602;BME280;51013;42.630;23.192;2022-09-02T00:23:28;92170.50;;;18.31;89.08
64602;BME280;51013;42.630;23.192;2022-09-02T00:25:54;92167.47;;;18.29;89.15
64602;BME280;51013;42.630;23.192;2022-09-02T00:28:22;92151.19;;;18.23;89.02
64602;BME280;51013;42.630;23.192;2022-09-02T00:30:48;92097.06;;;17.88;89.60
64602;BME280;51013;42.630;23.192;2022-09-02T00:33:17;92131.88;;;18.12;89.79
64602;BME280;51013;42.630;23.192;2022-09-02T00:35:44;92175.78;;;18.45;91.11
64602;BME280;51013;42.630;23.192;2022-09-02T00:38:12;92180.72;;;18.43;92.09
64602;BME280;51013;42.630;23.192;2022-09-02T00:40:42;92106.19;;;17.91;92.38
64602;BME280;51013;42.630;23.192;2022-09-02T00:43:10;92176.53;;;18.46;92.47
64602;BME280;51013;42.630;23.192;2022-09-02T00:45:37;92171.22;;;18.42;92.93
64602;BME280;51013;42.630;23.192;2022-09-02T00:48:05;92187.47;;;18.55;92.43
64602;BME280;51013;42.630;23.192;2022-09-02T00:50:35;92188.66;;;18.47;94.14
64602;BME280;51013;42.630;23.192;2022-09-02T00:53:05;92190.19;;;18.48;94.21
64602;BME280;51013;42.630;23.192;2022-09-02T00:55:37;92159.22;;;18.12;94.21
64602;BME280;51013;42.630;23.192;2022-09-02T00:58:08;92197.44;;;18.44;95.17
64602;BME280;51013;42.630;23.192;2022-09-02T01:00:42;92155.44;;;18.10;95.41
64602;BME280;51013;42.630;23.192;2022-09-02T01:03:12;92202.38;;;18.38;96.46
64602;BME280;51013;42.630;23.192;2022-09-02T01:05:46;92166.44;;;18.15;96.46
64602;BME280;51013;42.630;23.192;2022-09-02T01:08:15;92163.03;;;18.15;96.49
64602;BME280;51013;42.630;23.192;2022-09-02T01:10:44;92162.59;;;18.20;96.42
64602;BME280;51013;42.630;23.192;2022-09-02T01:13:16;92213.75;;;18.42;97.27
64602;BME280;51013;42.630;23.192;2022-09-02T01:15:48;92205.06;;;18.31;96.52
64602;BME280;51013;42.630;23.192;2022-09-02T01:18:18;92190.34;;;18.15;96.83
64602;BME280;51013;42.630;23.192;2022-09-02T01:20:47;92207.81;;;18.16;98.98
64602;BME280;51013;42.630;23.192;2022-09-02T01:23:16;92231.34;;;18.25;99.80
64602;BME280;51013;42.630;23.192;2022-09-02T01:25:44;92229.50;;;18.08;100.00
64602;BME280;51013;42.630;23.192;2022-09-02T01:28:15;92193.50;;;17.81;100.00
64602;BME280;51013;42.630;23.192;2022-09-02T01:30:47;92172.69;;;17.62;100.00
64602;BME280;51013;42.630;23.192;2022-09-02T01:33:16;92205.66;;;17.79;100.00
64602;BME280;51013;42.630;23.192;2022-09-02T01:35:44;92187.41;;;17.81;100.00
64602;BME280;51013;42.630;23.192;2022-09-02T01:38:11;92169.25;;;17.72;100.00
64602;BME280;51013;42.630;23.192;2022-09-02T01:40:39;92125.34;;;17.28;100.00
64602;BME280;51013;42.630;23.192;2022-09-02T01:43:10;92144.66;;;17.43;100.00
64602;BME280;51013;42.630;23.192;2022-09-02T01:45:39;92148.81;;;17.51;100.00
64602;BME280;51013;42.630;23.192;2022-09-02T01:48:07;92171.47;;;17.88;99.62
64602;BME280;51013;42.630;23.192;2022-09-02T01:50:36;92171.88;;;17.83;99.69
64602;BME280;51013;42.630;23.192;2022-09-02T01:53:04;92157.47;;;17.73;98.96
64602;BME280;51013;42.630;23.192;2022-09-02T01:55:31;92160.97;;;17.45;100.00
64602;BME280;51013;42.630;23.192;2022-09-02T01:58:00;92118.19;;;17.14;100.00
64602;BME280;51013;42.630;23.192;2022-09-02T02:00:27;92152.66;;;17.36;100.00
64602;BME280;51013;42.630;23.192;2022-09-02T02:02:55;92150.38;;;17.38;100.00
64602;BME280;51013;42.630;23.192;2022-09-02T02:05:22;92118.19;;;17.21;100.00
64602;BME280;51013;42.630;23.192;2022-09-02T02:07:50;92140.84;;;17.51;100.00
64602;BME280;51013;42.630;23.192;2022-09-02T02:10:18;92133.66;;;17.37;100.00
64602;BME280;51013;42.630;23.192;2022-09-02T02:12:47;92118.56;;;17.24;100.00
64602;BME280;51013;42.630;23.192;2022-09-02T02:15:17;92127.97;;;17.39;100.00
64602;BME280;51013;42.630;23.192;2022-09-02T02:17:46;92094.31;;;17.07;100.00
64602;BME280;51013;42.630;23.192;2022-09-02T02:20:14;92114.38;;;17.30;100.00
64602;BME280;51013;42.630;23.192;2022-09-02T02:22:42;92126.09;;;17.25;100.00
64602;BME280;51013;42.630;23.192;2022-09-02T02:25:09;92128.00;;;17.25;99.71
64602;BME280;51013;42.630;23.192;2022-09-02T02:27:37;92117.78;;;17.27;99.61
64602;BME280;51013;42.630;23.192;2022-09-02T02:30:05;92085.53;;;17.25;98.50
64602;BME280;51013;42.630;23.192;2022-09-02T02:32:33;92090.81;;;17.39;98.83
64602;BME280;51013;42.630;23.192;2022-09-02T02:35:01;92093.09;;;17.33;98.09
64602;BME280;51013;42.630;23.192;2022-09-02T02:37:28;92105.19;;;17.49;97.67
64602;BME280;51013;42.630;23.192;2022-09-02T02:39:55;92076.84;;;17.24;98.84
64602;BME280;51013;42.630;23.192;2022-09-02T02:42:22;92112.78;;;17.43;97.77
64602;BME280;51013;42.630;23.192;2022-09-02T02:44:49;92118.13;;;17.36;96.43
64602;BME280;51013;42.630;23.192;2022-09-02T02:47:17;92115.06;;;17.37;96.92
64602;BME280;51013;42.630;23.192;2022-09-02T02:49:45;92110.88;;;17.43;97.75
64602;BME280;51013;42.630;23.192;2022-09-02T02:52:12;92034.84;;;16.87;98.84
64602;BME280;51013;42.630;23.192;2022-09-02T02:54:40;92106.38;;;17.37;98.94
64602;BME280;51013;42.630;23.192;2022-09-02T02:57:08;92117.31;;;17.53;96.25
64602;BME280;51013;42.630;23.192;2022-09-02T02:59:35;92113.16;;;17.56;97.71
64602;BME280;51013;42.630;23.192;2022-09-02T03:02:03;92124.50;;;17.60;98.21
64602;BME280;51013;42.630;23.192;2022-09-02T03:04:30;92103.66;;;17.58;98.13
64602;BME280;51013;42.630;23.192;2022-09-02T03:06:59;92117.63;;;17.70;98.21
64602;BME280;51013;42.630;23.192;2022-09-02T03:09:27;92106.66;;;17.60;98.33
64602;BME280;51013;42.630;23.192;2022-09-02T03:11:54;92096.81;;;17.57;97.94
64602;BME280;51013;42.630;23.192;2022-09-02T03:14:20;92100.19;;;17.65;98.21
64602;BME280;51013;42.630;23.192;2022-09-02T03:16:49;92123.28;;;17.79;97.36
64602;BME280;51013;42.630;23.192;2022-09-02T03:19:16;92116.88;;;17.69;97.87
64602;BME280;51013;42.630;23.192;2022-09-02T03:21:43;92052.16;;;17.34;97.57
64602;BME280;51013;42.630;23.192;2022-09-02T03:24:11;92097.97;;;17.56;96.66
64602;BME280;51013;42.630;23.192;2022-09-02T03:26:41;92128.59;;;17.79;97.30
64602;BME280;51013;42.630;23.192;2022-09-02T03:29:08;92110.06;;;17.61;98.06
64602;BME280;51013;42.630;23.192;2022-09-02T03:31:35;92120.66;;;17.72;97.67
64602;BME280;51013;42.630;23.192;2022-09-02T03:34:05;92118.06;;;17.57;97.34
64602;BME280;51013;42.630;23.192;2022-09-02T03:36:34;92123.31;;;17.72;96.86
64602;BME280;51013;42.630;23.192;2022-09-02T03:39:02;92109.31;;;17.64;96.65
64602;BME280;51013;42.630;23.192;2022-09-02T03:41:31;92125.97;;;17.75;97.13
64602;BME280;51013;42.630;23.192;2022-09-02T03:43:58;92105.13;;;17.67;96.80
64602;BME280;51013;42.630;23.192;2022-09-02T03:46:26;92101.31;;;17.68;96.84
64602;BME280;51013;42.630;23.192;2022-09-02T03:48:53;92136.97;;;17.85;97.14
64602;BME280;51013;42.630;23.192;2022-09-02T03:51:22;92144.19;;;17.73;98.00
64602;BME280;51013;42.630;23.192;2022-09-02T03:53:49;92132.81;;;17.66;98.31
64602;BME280;51013;42.630;23.192;2022-09-02T03:56:17;92144.97;;;17.67;97.63
64602;BME280;51013;42.630;23.192;2022-09-02T03:58:47;92150.28;;;17.70;97.67
64602;BME280;51013;42.630;23.192;2022-09-02T04:01:17;92128.72;;;17.50;97.83
64602;BME280;51013;42.630;23.192;2022-09-02T04:03:44;92160.13;;;17.73;97.28
64602;BME280;51013;42.630;23.192;2022-09-02T04:06:13;92158.22;;;17.74;97.88
64602;BME280;51013;42.630;23.192;2022-09-02T04:08:41;92170.00;;;17.76;97.80
64602;BME280;51013;42.630;23.192;2022-09-02T04:11:22;92151.81;;;17.64;97.63
64602;BME280;51013;42.630;23.192;2022-09-02T04:13:52;92160.88;;;17.74;97.66
64602;BME280;51013;42.630;23.192;2022-09-02T04:16:20;92156.34;;;17.67;96.96
64602;BME280;51013;42.630;23.192;2022-09-02T04:18:53;92177.59;;;17.74;96.48
64602;BME280;51013;42.630;23.192;2022-09-02T04:21:21;92153.72;;;17.60;96.75
64602;BME280;51013;42.630;23.192;2022-09-02T04:23:48;92167.38;;;17.51;96.17
64602;BME280;51013;42.630;23.192;2022-09-02T04:26:17;92189.34;;;17.70;96.00
64602;BME280;51013;42.630;23.192;2022-09-02T04:28:44;92190.47;;;17.76;96.28
64602;BME280;51013;42.630;23.192;2022-09-02T04:31:15;92186.69;;;17.73;96.68
64602;BME280;51013;42.630;23.192;2022-09-02T04:33:43;92191.97;;;17.80;95.82
64602;BME280;51013;42.630;23.192;2022-09-02T04:36:13;92121.53;;;17.33;95.68
64602;BME280;51013;42.630;23.192;2022-09-02T04:38:40;92144.28;;;17.52;95.98
64602;BME280;51013;42.630;23.192;2022-09-02T04:41:10;92192.34;;;17.90;96.12
64602;BME280;51013;42.630;23.192;2022-09-02T04:43:37;92176.44;;;17.72;96.17
64602;BME280;51013;42.630;23.192;2022-09-02T04:46:07;92164.69;;;17.69;96.13
64602;BME280;51013;42.630;23.192;2022-09-02T04:48:36;92165.06;;;17.71;96.17
64602;BME280;51013;42.630;23.192;2022-09-02T04:51:05;92198.78;;;17.92;96.40
64602;BME280;51013;42.630;23.192;2022-09-02T04:53:32;92205.25;;;17.95;96.40
64602;BME280;51013;42.630;23.192;2022-09-02T04:56:02;92185.53;;;17.78;96.66
64602;BME280;51013;42.630;23.192;2022-09-02T04:58:30;92195.41;;;17.74;97.47
64602;BME280;51013;42.630;23.192;2022-09-02T05:00:57;92187.81;;;17.76;96.91
64602;BME280;51013;42.630;23.192;2022-09-02T05:03:25;92197.28;;;17.91;96.81
64602;BME280;51013;42.630;23.192;2022-09-02T05:06:03;92218.91;;;18.00;97.92
64602;BME280;51013;42.630;23.192;2022-09-02T05:09:07;92051.91;;;16.75;97.73
64602;BME280;51013;42.630;23.192;2022-09-02T05:11:52;91947.44;;;16.15;96.54
64602;BME280;51013;42.630;23.192;2022-09-02T05:14:35;91945.53;;;16.12;95.04
64602;BME280;51013;42.630;23.192;2022-09-02T05:17:28;91931.91;;;16.10;93.97
64602;BME280;51013;42.630;23.192;2022-09-02T06:35:48;91931.03;;;16.81;97.29
64602;BME280;51013;42.630;23.192;2022-09-02T06:38:22;91929.13;;;16.78;95.78
64602;BME280;51013;42.630;23.192;2022-09-02T06:41:30;91941.59;;;16.95;95.73
64602;BME280;51013;42.630;23.192;2022-09-02T06:44:19;91945.31;;;17.05;96.14
64602;BME280;51013;42.630;23.192;2022-09-02T07:21:02;91965.91;;;17.64;92.91
64602;BME280;51013;42.630;23.192;2022-09-02T07:24:00;92107.91;;;18.75;92.28
64602;BME280;51013;42.630;23.192;2022-09-02T07:43:47;91991.00;;;18.98;88.23
64602;BME280;51013;42.630;23.192;2022-09-02T07:46:14;92025.56;;;19.02;89.39
64602;BME280;51013;42.630;23.192;2022-09-02T07:48:42;92026.13;;;18.83;90.55
64602;BME280;51013;42.630;23.192;2022-09-02T07:51:09;91996.97;;;18.72;91.68
64602;BME280;51013;42.630;23.192;2022-09-02T07:53:38;92011.78;;;18.69;93.50
64602;BME280;51013;42.630;23.192;2022-09-02T07:56:08;92020.09;;;18.75;92.79
64602;BME280;51013;42.630;23.192;2022-09-02T07:58:35;92037.88;;;18.89;93.82
64602;BME280;51013;42.630;23.192;2022-09-02T08:01:06;92049.31;;;18.86;92.26
64602;BME280;51013;42.630;23.192;2022-09-02T08:03:33;92033.00;;;18.76;91.51
64602;BME280;51013;42.630;23.192;2022-09-02T08:06:02;92130.56;;;19.35;91.22
64602;BME280;51013;42.630;23.192;2022-09-02T08:08:33;92069.41;;;18.90;91.02
64602;BME280;51013;42.630;23.192;2022-09-02T08:11:05;92075.38;;;19.01;90.70
64602;BME280;51013;42.630;23.192;2022-09-02T08:13:34;92042.94;;;18.72;89.19
64602;BME280;51013;42.630;23.192;2022-09-02T08:16:05;92035.34;;;18.71;89.80
64602;BME280;51013;42.630;23.192;2022-09-02T08:18:33;92024.00;;;18.63;90.71
64602;BME280;51013;42.630;23.192;2022-09-02T08:21:02;92062.16;;;18.94;90.74
64602;BME280;51013;42.630;23.192;2022-09-02T08:23:29;92058.16;;;18.72;90.79
64602;BME280;51013;42.630;23.192;2022-09-02T08:25:58;92060.34;;;18.84;89.90
64602;BME280;51013;42.630;23.192;2022-09-02T08:28:28;92274.38;;;20.22;90.72
64602;BME280;51013;42.630;23.192;2022-09-02T08:30:58;92273.16;;;20.27;90.40
64602;BME280;51013;42.630;23.192;2022-09-02T08:33:27;92027.50;;;18.56;90.46
64602;BME280;51013;42.630;23.192;2022-09-02T08:35:54;92035.06;;;18.61;90.17
64602;BME280;51013;42.630;23.192;2022-09-02T08:38:21;92039.88;;;18.74;90.74
64602;BME280;51013;42.630;23.192;2022-09-02T08:40:50;92052.00;;;18.82;89.18
64602;BME280;51013;42.630;23.192;2022-09-02T08:43:26;92026.28;;;18.65;88.80
64602;BME280;51013;42.630;23.192;2022-09-02T08:46:01;92132.53;;;19.31;91.12
64602;BME280;51013;42.630;23.192;2022-09-02T08:48:45;92059.97;;;18.86;91.17
64602;BME280;51013;42.630;23.192;2022-09-02T08:51:20;92042.88;;;18.79;90.21
64602;BME280;51013;42.630;23.192;2022-09-02T08:53:53;92136.09;;;19.52;90.51
64602;BME280;51013;42.630;23.192;2022-09-02T08:56:24;92035.59;;;18.87;89.28
64602;BME280;51013;42.630;23.192;2022-09-02T08:58:53;92012.16;;;18.71;90.74
64602;BME280;51013;42.630;23.192;2022-09-02T09:01:29;91998.06;;;18.74;91.67
64602;BME280;51013;42.630;23.192;2022-09-02T09:04:17;92158.88;;;19.94;89.66
64602;BME280;51013;42.630;23.192;2022-09-02T09:07:01;92005.63;;;18.79;88.88
64602;BME280;51013;42.630;23.192;2022-09-02T09:09:44;91999.56;;;18.75;89.03
64602;BME280;51013;42.630;23.192;2022-09-02T09:12:19;92259.44;;;20.63;88.30
64602;BME280;51013;42.630;23.192;2022-09-02T09:14:54;92110.47;;;19.65;88.98
64602;BME280;51013;42.630;23.192;2022-09-02T09:17:29;92022.84;;;19.06;88.82
64602;BME280;51013;42.630;23.192;2022-09-02T09:20:06;92072.22;;;19.48;89.69
64602;BME280;51013;42.630;23.192;2022-09-02T09:22:37;92022.97;;;19.29;89.30
64602;BME280;51013;42.630;23.192;2022-09-02T09:25:08;92053.97;;;19.47;86.83
64602;BME280;51013;42.630;23.192;2022-09-02T09:27:38;92112.06;;;19.93;87.94
64602;BME280;51013;42.630;23.192;2022-09-02T09:30:08;92022.91;;;19.36;86.72
64602;BME280;51013;42.630;23.192;2022-09-02T09:32:40;92123.28;;;20.08;85.86
64602;BME280;51013;42.630;23.192;2022-09-02T09:35:13;92030.41;;;19.45;86.52
64602;BME280;51013;42.630;23.192;2022-09-02T09:37:43;92245.19;;;21.00;85.99
64602;BME280;51013;42.630;23.192;2022-09-02T09:40:21;92026.22;;;19.44;84.21
64602;BME280;51013;42.630;23.192;2022-09-02T09:42:53;92015.28;;;19.38;84.07
64602;BME280;51013;42.630;23.192;2022-09-02T09:48:27;92022.91;;;19.67;81.05
64602;BME280;51013;42.630;23.192;2022-09-02T09:51:13;92047.47;;;20.09;83.31
64602;BME280;51013;42.630;23.192;2022-09-02T09:53:42;92048.47;;;20.19;82.77
64602;BME280;51013;42.630;23.192;2022-09-02T09:56:33;91943.88;;;19.57;82.72
64602;BME280;51013;42.630;23.192;2022-09-02T09:59:06;92013.06;;;20.18;81.05
64602;BME280;51013;42.630;23.192;2022-09-02T10:01:39;91984.13;;;20.17;79.99
64602;BME280;51013;42.630;23.192;2022-09-02T10:04:08;92007.91;;;20.31;82.83
64602;BME280;51013;42.630;23.192;2022-09-02T10:06:41;91968.06;;;20.20;79.83
64602;BME280;51013;42.630;23.192;2022-09-02T10:09:30;92133.19;;;21.36;82.78
64602;BME280;51013;42.630;23.192;2022-09-02T10:11:59;92003.13;;;20.46;81.79
64602;BME280;51013;42.630;23.192;2022-09-02T10:14:33;92002.56;;;20.55;80.94
64602;BME280;51013;42.630;23.192;2022-09-02T10:17:17;92000.88;;;20.68;78.58
64602;BME280;51013;42.630;23.192;2022-09-02T10:19:53;91980.13;;;20.29;78.52
64602;BME280;51013;42.630;23.192;2022-09-02T10:25:36;91976.72;;;20.28;81.81
64602;BME280;51013;42.630;23.192;2022-09-02T10:28:42;91986.34;;;20.46;80.59
64602;BME280;51013;42.630;23.192;2022-09-02T10:31:31;91974.63;;;20.63;81.16
64602;BME280;51013;42.630;23.192;2022-09-02T10:34:25;91985.47;;;20.76;81.33
64602;BME280;51013;42.630;23.192;2022-09-02T10:37:18;91965.41;;;20.68;80.37
64602;BME280;51013;42.630;23.192;2022-09-02T10:40:10;92046.97;;;21.12;79.93
64602;BME280;51013;42.630;23.192;2022-09-02T10:43:05;92100.06;;;21.74;79.91
64602;BME280;51013;42.630;23.192;2022-09-02T10:45:51;91984.41;;;20.93;79.04
64602;BME280;51013;42.630;23.192;2022-09-02T10:48:44;92145.41;;;21.97;79.68
64602;BME280;51013;42.630;23.192;2022-09-02T10:51:41;91973.66;;;20.97;76.81
64602;BME280;51013;42.630;23.192;2022-09-02T10:54:28;91984.69;;;20.99;78.67
64602;BME280;51013;42.630;23.192;2022-09-02T10:57:20;92089.69;;;21.96;77.76
64602;BME280;51013;42.630;23.192;2022-09-02T11:00:02;91985.34;;;21.43;78.74
64602;BME280;51013;42.630;23.192;2022-09-02T11:02:43;91974.41;;;21.57;75.68
64602;BME280;51013;42.630;23.192;2022-09-02T11:05:46;91963.59;;;21.97;75.22
64602;BME280;51013;42.630;23.192;2022-09-02T11:08:37;92144.72;;;23.65;74.42
64602;BME280;51013;42.630;23.192;2022-09-02T11:11:13;91950.88;;;22.67;71.28
64602;BME280;51013;42.630;23.192;2022-09-02T11:13:57;92203.59;;;24.82;74.25
64602;BME280;51013;42.630;23.192;2022-09-02T11:16:58;92089.50;;;24.22;68.73
64602;BME280;51013;42.630;23.192;2022-09-02T11:19:42;92192.66;;;25.27;67.84
64602;BME280;51013;42.630;23.192;2022-09-02T11:22:21;91962.50;;;23.48;68.01
64602;BME280;51013;42.630;23.192;2022-09-02T11:25:01;92066.44;;;24.50;68.16
64602;BME280;51013;42.630;23.192;2022-09-02T11:27:40;91964.09;;;23.58;66.26
64602;BME280;51013;42.630;23.192;2022-09-02T11:30:18;92036.69;;;24.19;66.48
64602;BME280;51013;42.630;23.192;2022-09-02T11:33:14;91946.09;;;23.59;69.53
64602;BME280;51013;42.630;23.192;2022-09-02T11:35:57;92111.94;;;24.79;67.79
64602;BME280;51013;42.630;23.192;2022-09-02T11:38:38;92078.31;;;24.49;66.46
64602;BME280;51013;42.630;23.192;2022-09-02T11:41:34;91948.97;;;23.52;66.69
64602;BME280;51013;42.630;23.192;2022-09-02T11:45:05;91930.25;;;23.10;66.87
64602;BME280;51013;42.630;23.192;2022-09-02T11:54:43;91954.13;;;23.72;66.84
64602;BME280;51013;42.630;23.192;2022-09-02T11:57:22;91939.00;;;23.65;66.32
64602;BME280;51013;42.630;23.192;2022-09-02T12:00:25;92186.97;;;25.60;67.10
64602;BME280;51013;42.630;23.192;2022-09-02T12:03:22;92195.03;;;25.60;66.49
64602;BME280;51013;42.630;23.192;2022-09-02T12:06:08;92052.44;;;24.81;67.34
64602;BME280;51013;42.630;23.192;2022-09-02T12:09:07;91932.47;;;24.05;66.92
64602;BME280;51013;42.630;23.192;2022-09-02T12:11:49;91916.94;;;23.99;66.09
64602;BME280;51013;42.630;23.192;2022-09-02T12:21:06;91948.63;;;25.09;62.46
64602;BME280;51013;42.630;23.192;2022-09-02T12:24:09;92174.25;;;27.02;58.98
64602;BME280;51013;42.630;23.192;2022-09-02T12:27:17;92182.56;;;26.86;60.53
64602;BME280;51013;42.630;23.192;2022-09-02T12:29:52;92184.84;;;26.34;62.04
64602;BME280;51013;42.630;23.192;2022-09-02T12:35:58;91969.22;;;24.68;61.70
64602;BME280;51013;42.630;23.192;2022-09-02T12:38:32;91910.78;;;24.12;63.56
64602;BME280;51013;42.630;23.192;2022-09-02T13:04:31;92053.06;;;23.40;70.12
64602;BME280;51013;42.630;23.192;2022-09-02T13:28:13;92165.44;;;22.82;85.28
64602;BME280;51013;42.630;23.192;2022-09-02T13:31:06;91876.91;;;20.49;85.51
64602;BME280;51013;42.630;23.192;2022-09-02T13:33:56;91900.97;;;20.46;85.32
64602;BME280;51013;42.630;23.192;2022-09-02T13:36:28;92169.75;;;22.43;86.89
64602;BME280;51013;42.630;23.192;2022-09-02T13:39:09;91924.28;;;20.41;86.13
64602;BME280;51013;42.630;23.192;2022-09-02T13:41:39;92081.38;;;21.30;85.29
64602;BME280;51013;42.630;23.192;2022-09-02T13:44:11;91894.59;;;20.19;82.03
64602;BME280;51013;42.630;23.192;2022-09-02T13:46:54;92140.28;;;21.87;86.48
64602;BME280;51013;42.630;23.192;2022-09-02T13:49:30;92172.44;;;22.23;88.07
64602;BME280;51013;42.630;23.192;2022-09-02T13:52:11;91903.44;;;20.36;88.25
64602;BME280;51013;42.630;23.192;2022-09-02T13:54:46;91911.44;;;20.60;88.05
64602;BME280;51013;42.630;23.192;2022-09-02T13:57:25;91908.56;;;20.71;87.14
64602;BME280;51013;42.630;23.192;2022-09-02T14:03:41;91874.75;;;20.64;87.65
64602;BME280;51013;42.630;23.192;2022-09-02T14:07:03;91887.06;;;20.78;86.88
64602;BME280;51013;42.630;23.192;2022-09-02T14:10:05;91925.78;;;21.06;86.20
64602;BME280;51013;42.630;23.192;2022-09-02T14:12:48;92183.19;;;22.92;87.95
64602;BME280;51013;42.630;23.192;2022-09-02T14:15:43;91907.53;;;21.05;86.43
64602;BME280;51013;42.630;23.192;2022-09-02T14:21:43;91924.06;;;21.16;84.38
64602;BME280;51013;42.630;23.192;2022-09-02T14:24:24;91923.31;;;21.15;82.89
64602;BME280;51013;42.630;23.192;2022-09-02T14:27:00;92021.84;;;21.90;83.75
64602;BME280;51013;42.630;23.192;2022-09-02T14:29:51;91887.88;;;20.75;82.87
64602;BME280;51013;42.630;23.192;2022-09-02T14:35:53;91934.00;;;20.95;83.46
64602;BME280;51013;42.630;23.192;2022-09-02T14:44:52;92055.53;;;21.47;84.44
64602;BME280;51013;42.630;23.192;2022-09-02T14:47:35;91942.56;;;20.67;85.65
64602;BME280;51013;42.630;23.192;2022-09-02T14:50:23;91904.91;;;20.37;85.91
64602;BME280;51013;42.630;23.192;2022-09-02T14:53:08;91936.41;;;20.46;87.04
64602;BME280;51013;42.630;23.192;2022-09-02T14:55:50;92078.13;;;21.43;85.07
64602;BME280;51013;42.630;23.192;2022-09-02T14:58:29;91926.41;;;20.07;86.34
64602;BME280;51013;42.630;23.192;2022-09-02T15:21:19;92116.97;;;20.26;91.02
64602;BME280;51013;42.630;23.192;2022-09-02T15:24:07;91902.81;;;18.62;92.01
64602;BME280;51013;42.630;23.192;2022-09-02T15:36:31;92240.41;;;20.88;90.46
64602;BME280;51013;42.630;23.192;2022-09-02T15:39:35;91935.66;;;18.83;91.01
64602;BME280;51013;42.630;23.192;2022-09-02T15:42:23;91913.63;;;18.78;90.89
64602;BME280;51013;42.630;23.192;2022-09-02T15:45:13;91948.53;;;18.88;90.58
64602;BME280;51013;42.630;23.192;2022-09-02T15:55:18;92034.56;;;19.12;92.42
64602;BME280;51013;42.630;23.192;2022-09-02T16:04:51;91971.72;;;18.49;93.95
64602;BME280;51013;42.630;23.192;2022-09-02T16:08:07;91998.19;;;18.64;93.09
64602;BME280;51013;42.630;23.192;2022-09-02T16:52:06;91989.97;;;17.98;93.92
64602;BME280;51013;42.630;23.192;2022-09-02T16:54:50;92115.88;;;18.75;93.81
64602;BME280;51013;42.630;23.192;2022-09-02T16:57:31;91986.25;;;17.81;93.34
64602;BME280;51013;42.630;23.192;2022-09-02T17:00:15;92269.41;;;19.86;94.45
64602;BME280;51013;42.630;23.192;2022-09-02T17:03:00;91997.69;;;17.78;93.20
64602;BME280;51013;42.630;23.192;2022-09-02T17:05:52;91972.75;;;17.58;93.55
64602;BME280;51013;42.630;23.192;2022-09-02T17:08:45;92112.94;;;18.66;94.36
64602;BME280;51013;42.630;23.192;2022-09-02T17:11:29;91995.03;;;17.75;94.11
64602;BME280;51013;42.630;23.192;2022-09-02T17:14:15;92010.63;;;17.69;93.25
64602;BME280;51013;42.630;23.192;2022-09-02T17:16:54;92273.56;;;19.46;94.12
64602;BME280;51013;42.630;23.192;2022-09-02T17:19:25;91951.34;;;17.13;93.98
64602;BME280;51013;42.630;23.192;2022-09-02T17:22:06;91977.44;;;17.36;93.54
64602;BME280;51013;42.630;23.192;2022-09-02T17:44:59;92000.66;;;17.14;93.25
64602;BME280;51013;42.630;23.192;2022-09-02T17:47:48;91998.75;;;17.18;93.65
64602;BME280;51013;42.630;23.192;2022-09-02T17:50:17;92004.41;;;17.20;93.41
64602;BME280;51013;42.630;23.192;2022-09-02T17:52:48;92006.31;;;17.19;93.98
64602;BME280;51013;42.630;23.192;2022-09-02T17:55:16;91956.41;;;16.82;94.04
64602;BME280;51013;42.630;23.192;2022-09-02T17:57:50;92281.50;;;19.00;93.83
64602;BME280;51013;42.630;23.192;2022-09-02T18:00:27;92007.06;;;17.20;93.64
64602;BME280;51013;42.630;23.192;2022-09-02T18:03:18;92031.34;;;17.26;93.83
64602;BME280;51013;42.630;23.192;2022-09-02T18:06:08;92019.25;;;17.10;93.09
64602;BME280;51013;42.630;23.192;2022-09-02T18:08:55;92146.78;;;17.91;94.26
64602;BME280;51013;42.630;23.192;2022-09-02T18:11:26;92007.19;;;16.91;93.72
64602;BME280;51013;42.630;23.192;2022-09-02T18:14:04;92183.50;;;18.14;93.96
64602;BME280;51013;42.630;23.192;2022-09-02T18:16:47;92147.56;;;17.88;93.71
64602;BME280;51013;42.630;23.192;2022-09-02T18:19:32;92059.50;;;16.84;94.79
64602;BME280;51013;42.630;23.192;2022-09-02T18:22:15;92154.47;;;17.57;94.60
64602;BME280;51013;42.630;23.192;2022-09-02T18:24:59;92170.78;;;17.59;94.43
64602;BME280;51013;42.630;23.192;2022-09-02T18:27:38;92036.00;;;16.75;93.24
64602;BME280;51013;42.630;23.192;2022-09-02T18:30:14;92236.00;;;17.81;94.14
64602;BME280;51013;42.630;23.192;2022-09-02T18:33:19;92050.03;;;16.65;94.45
64602;BME280;51013;42.630;23.192;2022-09-02T18:35:54;92218.19;;;17.78;94.71
64602;BME280;51013;42.630;23.192;2022-09-02T18:38:30;92066.69;;;16.69;94.87
64602;BME280;51013;42.630;23.192;2022-09-02T18:41:24;92218.59;;;17.66;94.81
64602;BME280;51013;42.630;23.192;2022-09-02T18:44:06;92244.00;;;17.74;95.96
64602;BME280;51013;42.630;23.192;2022-09-02T18:46:46;92101.16;;;16.87;95.32
64602;BME280;51013;42.630;23.192;2022-09-02T18:49:23;92220.50;;;17.62;95.54
64602;BME280;51013;42.630;23.192;2022-09-02T18:51:58;92008.00;;;16.02;95.41
64602;BME280;51013;42.630;23.192;2022-09-02T18:54:29;92045.84;;;16.28;95.10